Time;durP1;ratioP1;P1;durP2;ratioP2;P2;SDS_P1;SDS_P2;PMS_P1;PMS_P2;Temp;Humidity;BMP_temperature;BMP_pressure;BME280_temperature;BME280_humidity;BME280_pressure;Samples;Min_cycle;Max_cycle;Signal;HPM_P1;HPM_P2
2021/01/15 00:01:18;;;;;;;;;28.50;24.50;;;;;7.32;42.24;98485.75;6187630;28;125439;-60
2021/01/15 00:04:20;;;;;;;;;33.00;28.60;;;;;7.16;42.14;98499.59;6183217;28;126130;-60
2021/01/15 00:07:21;;;;;;;;;31.40;27.00;;;;;7.22;41.79;98509.50;6204156;28;126225;-60
2021/01/15 00:10:23;;;;;;;;;27.50;25.00;;;;;7.00;41.42;98464.38;6206590;28;127078;-60
2021/01/15 00:13:24;;;;;;;;;27.00;24.60;;;;;7.22;40.56;98520.22;6206146;28;125225;-60
2021/01/15 00:16:30;;;;;;;;;24.40;21.80;;;;;7.16;40.15;98520.22;6207463;28;126758;-60
2021/01/15 00:19:32;;;;;;;;;28.60;24.60;;;;;7.17;40.41;98533.44;6207255;28;126998;-59
2021/01/15 00:22:34;;;;;;;;;27.75;22.00;;;;;7.15;40.57;98530.13;6223013;28;127086;-59
2021/01/15 00:25:36;;;;;;;;;31.00;24.60;;;;;6.70;40.38;98472.84;6205050;28;126397;-60
2021/01/15 00:28:38;;;;;;;;;23.60;21.00;;;;;7.01;40.14;98536.53;6198009;28;127252;-60
2021/01/15 00:31:41;;;;;;;;;21.75;19.75;;;;;6.91;39.87;98512.00;6182539;28;126979;-59
2021/01/15 00:34:43;;;;;;;;;22.80;19.80;;;;;6.90;39.52;98510.34;6182041;28;126404;-60
2021/01/15 00:37:44;;;;;;;;;20.00;18.50;;;;;7.01;39.08;98530.34;6197080;28;125561;-60
2021/01/15 00:40:46;;;;;;;;;19.60;16.20;;;;;7.00;38.75;98542.09;6199135;28;126381;-59
2021/01/15 00:43:47;;;;;;;;;13.60;12.60;;;;;6.94;38.85;98538.38;6206757;28;126991;-59
2021/01/15 00:46:54;;;;;;;;;16.00;13.60;;;;;6.93;38.73;98547.47;6203594;28;127548;-60
2021/01/15 00:49:55;;;;;;;;;17.60;14.20;;;;;6.92;38.75;98551.16;6186575;28;124787;-60
2021/01/15 00:52:57;;;;;;;;;17.50;16.00;;;;;6.95;38.38;98558.78;6185192;28;126112;-60
2021/01/15 00:55:59;;;;;;;;;16.00;15.00;;;;;6.99;38.13;98543.94;6196656;28;126840;-59
2021/01/15 00:59:01;;;;;;;;;18.00;16.40;;;;;6.99;38.35;98548.50;6200605;28;127316;-59
2021/01/15 01:02:14;;;;;;;;;18.00;15.00;;;;;6.39;38.24;98451.25;6196372;28;123594;-59
2021/01/15 01:05:15;;;;;;;;;19.75;16.00;;;;;6.95;38.20;98550.75;6185248;28;125296;-59
2021/01/15 01:08:17;;;;;;;;;17.00;15.00;;;;;6.97;38.42;98560.25;6186935;28;126315;-59
2021/01/15 01:11:21;;;;;;;;;19.00;17.00;;;;;6.91;38.57;98561.06;6186480;28;127862;-59
2021/01/15 01:14:22;;;;;;;;;18.00;17.40;;;;;6.83;38.68;98574.66;6185428;28;126946;-59
2021/01/15 01:17:24;;;;;;;;;21.40;17.60;;;;;6.72;38.88;98577.94;6209944;28;126339;-59
2021/01/15 01:20:25;;;;;;;;;17.60;15.40;;;;;6.84;39.23;98581.66;6210061;28;125013;-59
2021/01/15 01:23:27;;;;;;;;;20.00;18.00;;;;;6.80;39.10;98574.25;6211032;28;124523;-59
2021/01/15 01:26:28;;;;;;;;;21.00;17.40;;;;;6.85;39.33;98586.00;6209880;28;125131;-59
2021/01/15 01:29:30;;;;;;;;;15.00;14.00;;;;;6.60;39.25;98546.63;6209486;28;125365;-60
2021/01/15 01:32:31;;;;;;;;;19.00;16.00;;;;;6.93;39.01;98591.16;6209286;28;127325;-59
2021/01/15 01:35:33;;;;;;;;;16.60;15.00;;;;;6.94;38.86;98594.66;6203905;28;126446;-60
2021/01/15 01:38:35;;;;;;;;;14.00;12.00;;;;;6.84;38.54;98595.06;6186948;28;126751;-60
2021/01/15 01:41:36;;;;;;;;;16.00;15.00;;;;;6.87;38.55;98593.84;6168497;28;126236;-59
2021/01/15 01:44:38;;;;;;;;;16.00;14.00;;;;;6.81;38.72;98591.97;6200670;28;126584;-59
2021/01/15 01:47:39;;;;;;;;;16.00;13.00;;;;;6.57;39.11;98576.47;6183818;28;125975;-60
2021/01/15 01:50:42;;;;;;;;;12.50;11.00;;;;;6.63;38.99;98587.22;6184652;28;125520;-60
2021/01/15 01:53:43;;;;;;;;;15.00;11.75;;;;;6.60;38.65;98595.63;6185040;28;126275;-59
2021/01/15 01:56:45;;;;;;;;;15.40;14.00;;;;;6.57;38.37;98579.16;6185390;28;126833;-59
2021/01/15 01:59:46;;;;;;;;;14.00;13.00;;;;;6.64;38.71;98596.91;6185479;28;126501;-60
2021/01/15 02:02:47;;;;;;;;;15.50;12.75;;;;;6.60;38.78;98601.00;6185169;28;125692;-59
2021/01/15 02:05:49;;;;;;;;;17.00;14.00;;;;;6.63;38.90;98597.09;6199753;28;126196;-60
2021/01/15 02:08:50;;;;;;;;;13.80;12.00;;;;;6.62;38.94;98598.13;6202401;28;127722;-59
2021/01/15 02:12:09;;;;;;;;;13.00;11.00;;;;;6.58;38.78;98602.25;6209805;28;125487;-60
2021/01/15 02:15:29;;;;;;;;;14.00;12.00;;;;;6.57;38.86;98604.09;6206048;28;126095;-60
2021/01/15 02:18:40;;;;;;;;;13.00;12.00;;;;;6.59;39.00;98604.72;6208872;28;126352;-60
2021/01/15 02:22:36;;;;;;;;;11.00;10.00;;;;;6.57;38.78;98601.41;6209387;28;124903;-59
2021/01/15 02:26:05;;;;;;;;;14.25;13.25;;;;;6.46;39.08;98607.34;6148033;28;124796;-59
2021/01/15 02:29:14;;;;;;;;;15.40;12.40;;;;;6.45;39.38;98627.94;6208348;28;125972;-59
2021/01/15 02:33:05;;;;;;;;;15.50;14.00;;;;;6.42;39.63;98596.22;6194416;28;127013;-59
2021/01/15 02:36:21;;;;;;;;;13.00;11.00;;;;;6.05;39.77;98564.63;6186078;28;124683;-59
2021/01/15 02:39:45;;;;;;;;;17.00;15.60;;;;;6.21;39.87;98592.84;6209204;28;125259;-60
2021/01/15 02:42:50;;;;;;;;;14.40;13.00;;;;;6.06;39.79;98569.75;6196507;28;124820;-60
2021/01/15 02:45:55;;;;;;;;;15.80;12.60;;;;;6.13;40.41;98604.59;6207439;28;124581;-60
2021/01/15 02:48:58;;;;;;;;;13.00;12.25;;;;;6.18;40.44;98606.66;6207858;28;124823;-60
2021/01/15 02:52:00;;;;;;;;;14.00;13.00;;;;;6.09;40.45;98608.69;6204631;28;124264;-60
2021/01/15 02:55:03;;;;;;;;;15.50;15.00;;;;;5.89;40.76;98605.94;6209137;28;124944;-59
2021/01/15 02:58:04;;;;;;;;;17.00;15.40;;;;;5.94;41.06;98608.84;6203985;28;124942;-59
2021/01/15 03:01:06;;;;;;;;;15.75;14.25;;;;;6.01;41.18;98619.56;6208839;28;126452;-59
2021/01/15 03:04:31;;;;;;;;;16.40;15.00;;;;;6.01;41.29;98630.28;6206011;28;126492;-59
2021/01/15 03:07:33;;;;;;;;;16.00;14.60;;;;;5.82;41.05;98631.78;6197431;28;124843;-59
2021/01/15 03:10:39;;;;;;;;;20.00;17.00;;;;;5.96;41.40;98641.53;6208177;28;125413;-60
2021/01/15 03:13:42;;;;;;;;;17.50;17.00;;;;;5.72;41.53;98601.88;6209588;28;124743;-59
2021/01/15 03:16:46;;;;;;;;;23.40;19.00;;;;;5.98;41.45;98630.66;6207712;28;126109;-60
2021/01/15 03:19:48;;;;;;;;;18.00;16.00;;;;;6.00;41.57;98631.28;6207272;28;124792;-60
2021/01/15 03:22:51;;;;;;;;;19.00;18.00;;;;;5.99;41.78;98635.81;6208608;28;127629;-60
2021/01/15 03:25:52;;;;;;;;;19.50;17.00;;;;;5.96;41.87;98619.34;6199342;28;127430;-59
2021/01/15 03:28:54;;;;;;;;;21.20;19.20;;;;;5.89;42.00;98621.16;6183692;28;125428;-59
2021/01/15 03:31:55;;;;;;;;;17.00;16.00;;;;;5.97;41.94;98635.19;6183252;28;124347;-59
2021/01/15 03:34:57;;;;;;;;;21.00;18.80;;;;;5.97;42.26;98629.81;6191272;28;125078;-60
2021/01/15 03:38:10;;;;;;;;;20.00;19.40;;;;;6.05;42.05;98635.03;6204712;28;126898;-59
2021/01/15 03:41:12;;;;;;;;;18.60;17.20;;;;;6.06;42.18;98633.16;6208530;28;125607;-60
2021/01/15 03:44:13;;;;;;;;;21.00;16.00;;;;;6.05;41.96;98635.03;6187478;28;126730;-60
2021/01/15 03:47:15;;;;;;;;;16.50;15.50;;;;;6.04;42.10;98635.22;6182604;28;126549;-60
2021/01/15 03:50:16;;;;;;;;;20.20;17.20;;;;;6.05;42.00;98624.31;6182650;28;125983;-60
2021/01/15 03:53:18;;;;;;;;;21.75;19.00;;;;;5.90;42.03;98620.97;6182737;28;126414;-60
2021/01/15 03:56:19;;;;;;;;;20.50;19.25;;;;;5.76;42.55;98591.63;6183177;28;125259;-60
2021/01/15 03:59:21;;;;;;;;;23.00;20.00;;;;;5.97;42.52;98624.47;6195998;28;126616;-60
2021/01/15 04:02:22;;;;;;;;;21.80;20.00;;;;;5.87;42.64;98618.66;6186649;28;127900;-60
2021/01/15 04:05:24;;;;;;;;;22.50;22.00;;;;;5.95;43.03;98623.03;6182410;28;126578;-61
2021/01/15 04:08:25;;;;;;;;;22.20;21.00;;;;;5.94;42.89;98626.72;6183864;28;125548;-60
2021/01/15 04:11:28;;;;;;;;;23.40;21.80;;;;;5.93;43.06;98615.19;6184966;28;127845;-60
2021/01/15 04:14:29;;;;;;;;;22.00;19.75;;;;;5.87;43.06;98609.81;6182853;28;126237;-60
2021/01/15 04:17:30;;;;;;;;;23.00;21.00;;;;;5.84;43.28;98605.66;6189818;28;127608;-60
2021/01/15 04:20:32;;;;;;;;;24.00;21.67;;;;;5.88;43.30;98609.63;6183971;28;126238;-60
2021/01/15 04:23:35;;;;;;;;;27.40;23.20;;;;;5.82;43.32;98606.88;6187239;28;124906;-60
2021/01/15 04:26:36;;;;;;;;;23.60;21.00;;;;;5.81;43.36;98605.25;6186084;28;127109;-60
2021/01/15 04:29:38;;;;;;;;;23.80;23.00;;;;;5.91;43.26;98614.56;6187352;28;126573;-60
2021/01/15 04:32:44;;;;;;;;;29.60;25.40;;;;;5.91;43.57;98611.88;6201475;28;126572;-59
2021/01/15 04:35:46;;;;;;;;;24.60;21.60;;;;;5.86;43.39;98610.81;6197956;28;126206;-59
2021/01/15 04:38:47;;;;;;;;;26.00;24.00;;;;;5.87;43.61;98613.31;6186963;28;126976;-59
2021/01/15 04:41:50;;;;;;;;;26.00;22.00;;;;;5.64;43.48;98583.34;6186892;28;127265;-59
2021/01/15 04:44:52;;;;;;;;;24.75;21.75;;;;;5.72;43.50;98595.72;6186038;28;125858;-60
2021/01/15 04:47:54;;;;;;;;;27.50;25.00;;;;;5.84;43.88;98619.03;6186054;28;127030;-59
2021/01/15 04:50:58;;;;;;;;;27.00;25.00;;;;;5.79;43.81;98608.09;6184490;28;127021;-59
2021/01/15 04:54:10;;;;;;;;;27.00;23.75;;;;;5.78;43.91;98617.16;6185025;28;127017;-59
2021/01/15 04:57:11;;;;;;;;;26.80;24.60;;;;;5.85;43.95;98615.34;6186753;28;126132;-59
2021/01/15 05:00:16;;;;;;;;;25.80;23.00;;;;;5.40;43.83;98541.03;6189100;28;125374;-59
2021/01/15 05:03:23;;;;;;;;;31.60;26.60;;;;;5.93;44.09;98619.72;6210913;28;124456;-59
2021/01/15 05:06:29;;;;;;;;;31.00;26.60;;;;;5.94;43.99;98622.22;6189240;28;123560;-59
2021/01/15 05:09:38;;;;;;;;;29.00;26.00;;;;;5.64;44.06;98561.94;6185600;28;125620;-60
2021/01/15 05:12:47;;;;;;;;;26.00;21.40;;;;;5.74;44.19;98601.69;6186273;28;125939;-59
2021/01/15 05:15:49;;;;;;;;;30.00;22.00;;;;;5.87;44.13;98615.16;6184886;28;126182;-59
2021/01/15 05:18:53;;;;;;;;;27.75;23.50;;;;;5.85;44.29;98620.69;6186773;28;126207;-59
2021/01/15 05:21:54;;;;;;;;;26.25;22.50;;;;;5.91;44.40;98625.25;6185908;28;125789;-59
2021/01/15 05:24:56;;;;;;;;;26.00;24.50;;;;;5.66;44.13;98581.28;6192631;28;126531;-59
2021/01/15 05:27:58;;;;;;;;;26.00;22.00;;;;;5.75;44.20;98593.47;6210557;28;126689;-59
2021/01/15 05:30:59;;;;;;;;;26.00;23.00;;;;;5.90;44.30;98622.81;6209076;28;125332;-59
2021/01/15 05:34:08;;;;;;;;;26.40;24.00;;;;;5.92;44.21;98618.91;6209165;28;123653;-59
2021/01/15 05:37:10;;;;;;;;;30.40;26.40;;;;;6.02;44.32;98631.91;6210676;28;124892;-60
2021/01/15 05:40:14;;;;;;;;;26.80;22.80;;;;;6.13;43.94;98627.84;6210962;28;126928;-60
2021/01/15 05:43:26;;;;;;;;;30.00;25.00;;;;;6.12;43.80;98639.56;6210969;28;126947;-60
2021/01/15 05:46:28;;;;;;;;;29.40;25.40;;;;;6.06;44.16;98622.44;6210452;28;125589;-59
2021/01/15 05:49:30;;;;;;;;;27.80;25.00;;;;;6.07;44.44;98632.13;6210678;28;125214;-59
2021/01/15 05:52:31;;;;;;;;;28.50;26.00;;;;;6.07;44.53;98627.59;6197371;28;125516;-59
2021/01/15 05:55:33;;;;;;;;;27.00;23.60;;;;;6.15;44.49;98639.19;6198404;28;124439;-60
2021/01/15 05:58:36;;;;;;;;;26.00;24.00;;;;;5.93;44.63;98604.50;6198916;28;124489;-59
2021/01/15 06:02:05;;;;;;;;;24.00;20.00;;;;;6.16;44.25;98652.34;6187723;28;125476;-59
2021/01/15 06:05:07;;;;;;;;;24.50;21.75;;;;;5.90;43.82;98615.59;6191910;28;126933;-59
2021/01/15 06:08:08;;;;;;;;;23.80;21.00;;;;;6.04;43.12;98657.47;6209653;28;125416;-59
2021/01/15 06:11:22;;;;;;;;;26.40;23.40;;;;;5.68;42.90;98622.03;6208477;28;126989;-59
2021/01/15 06:14:26;;;;;;;;;27.00;24.00;;;;;5.81;42.32;98677.47;6193282;28;124902;-59
2021/01/15 06:17:28;;;;;;;;;25.00;23.00;;;;;5.71;42.36;98685.00;6212885;28;126963;-59
2021/01/15 06:20:29;;;;;;;;;22.00;18.60;;;;;5.62;42.20;98684.31;6219811;27;127549;-59
2021/01/15 06:23:38;;;;;;;;;24.00;21.75;;;;;4.84;42.00;98578.44;6227113;27;125465;-60
2021/01/15 06:26:40;;;;;;;;;22.00;18.00;;;;;5.18;41.44;98636.50;6213561;28;124861;-59
2021/01/15 06:29:43;;;;;;;;;22.00;20.00;;;;;5.44;41.02;98695.50;6222610;28;126335;-59
2021/01/15 06:32:47;;;;;;;;;23.00;22.40;;;;;5.40;40.71;98702.25;6209216;28;127131;-59
2021/01/15 06:35:49;;;;;;;;;23.20;19.80;;;;;5.37;40.71;98707.16;6217494;27;124873;-59
2021/01/15 06:38:51;;;;;;;;;22.60;19.60;;;;;5.37;40.90;98708.00;6218606;28;126955;-59
2021/01/15 06:42:01;;;;;;;;;24.00;21.00;;;;;5.36;40.39;98711.69;6225523;28;126310;-59
2021/01/15 06:45:13;;;;;;;;;19.00;17.00;;;;;5.32;40.21;98722.97;6223239;28;127058;-59
2021/01/15 06:48:19;;;;;;;;;18.60;17.60;;;;;5.33;40.55;98735.28;6216692;28;126102;-59
2021/01/15 06:51:21;;;;;;;;;19.25;18.25;;;;;4.85;40.25;98662.91;6207794;28;124286;-59
2021/01/15 06:54:25;;;;;;;;;22.00;20.00;;;;;5.28;39.98;98740.41;6224303;27;126196;-59
2021/01/15 06:57:35;;;;;;;;;20.60;18.00;;;;;5.19;39.63;98743.19;6224384;28;125726;-59
2021/01/15 07:00:38;;;;;;;;;20.25;19.25;;;;;4.93;40.07;98699.38;6202875;28;124378;-59
2021/01/15 07:04:11;;;;;;;;;21.40;19.00;;;;;5.22;40.55;98752.69;6205338;28;127220;-59
2021/01/15 07:07:15;;;;;;;;;20.50;19.50;;;;;4.76;40.75;98694.25;6219807;28;125644;-59
2021/01/15 07:10:16;;;;;;;;;21.00;19.00;;;;;4.38;40.67;98631.41;6200948;28;125939;-59
2021/01/15 07:13:28;;;;;;;;;23.40;21.40;;;;;5.16;40.73;98758.78;6214855;27;124815;-59
2021/01/15 07:16:38;;;;;;;;;22.60;20.00;;;;;5.19;41.05;98771.75;6215324;28;125799;-60
2021/01/15 07:19:43;;;;;;;;;25.40;21.00;;;;;5.22;40.45;98777.56;6211482;28;125975;-59
2021/01/15 07:22:52;;;;;;;;;24.00;19.40;;;;;4.95;40.55;98756.09;6196035;27;124634;-59
2021/01/15 07:26:00;;;;;;;;;23.40;20.00;;;;;5.21;40.68;98791.13;6221713;28;125966;-59
2021/01/15 07:29:01;;;;;;;;;20.50;19.00;;;;;5.18;40.68;98791.50;6222192;28;125521;-60
2021/01/15 07:32:15;;;;;;;;;21.00;20.00;;;;;5.08;41.18;98778.41;6199051;28;126787;-59
2021/01/15 07:35:19;;;;;;;;;21.60;20.20;;;;;5.18;41.07;98791.50;6195753;28;124910;-60
2021/01/15 07:38:20;;;;;;;;;24.60;23.00;;;;;5.15;41.17;98782.00;6231016;28;124546;-59
2021/01/15 07:41:46;;;;;;;;;21.00;19.00;;;;;5.26;41.22;98801.22;6214440;28;128595;-59
2021/01/15 07:44:48;;;;;;;;;25.00;22.40;;;;;5.32;41.00;98805.81;6216647;27;126494;-59
2021/01/15 07:47:50;;;;;;;;;21.33;21.00;;;;;5.33;40.42;98810.97;6211812;28;126680;-59
2021/01/15 07:50:52;;;;;;;;;21.60;18.40;;;;;5.31;39.18;98817.53;6209581;28;126180;-59
2021/01/15 07:53:53;;;;;;;;;20.00;16.25;;;;;5.26;38.58;98814.59;6205442;27;125238;-59
2021/01/15 07:57:10;;;;;;;;;19.60;15.60;;;;;5.27;38.06;98816.25;6221799;28;125229;-60
2021/01/15 08:00:24;;;;;;;;;17.20;15.20;;;;;5.01;37.82;98776.72;6229229;28;126754;-59
2021/01/15 08:03:26;;;;;;;;;18.00;16.25;;;;;5.35;37.56;98833.00;6203459;28;127096;-59
2021/01/15 08:06:28;;;;;;;;;21.00;20.00;;;;;5.30;37.35;98830.06;6207264;28;126378;-59
2021/01/15 08:09:39;;;;;;;;;17.00;15.20;;;;;5.40;37.41;98843.13;6206330;28;125290;-59
2021/01/15 08:12:41;;;;;;;;;18.40;17.60;;;;;5.40;37.40;98832.41;6201242;28;126384;-59
2021/01/15 08:15:42;;;;;;;;;17.20;15.60;;;;;5.44;37.28;98850.56;6215978;28;126506;-60
2021/01/15 08:18:44;;;;;;;;;16.00;15.00;;;;;5.37;37.29;98830.97;6202734;28;127661;-59
2021/01/15 08:21:47;;;;;;;;;17.20;15.20;;;;;5.49;37.25;98845.47;6211511;28;125244;-59
2021/01/15 08:24:50;;;;;;;;;15.60;13.40;;;;;5.54;37.59;98858.28;6222058;28;126785;-59
2021/01/15 08:27:51;;;;;;;;;17.40;16.00;;;;;5.52;37.33;98858.47;6216044;28;125174;-60
2021/01/15 08:31:06;;;;;;;;;17.00;13.60;;;;;5.49;37.27;98863.38;6222413;27;126771;-59
2021/01/15 08:34:19;;;;;;;;;15.40;14.40;;;;;5.46;37.46;98869.94;6213679;28;127728;-59
2021/01/15 08:37:20;;;;;;;;;19.20;16.40;;;;;5.42;37.48;98849.13;6180997;28;126962;-59
2021/01/15 08:40:30;;;;;;;;;14.00;14.00;;;;;5.50;36.86;98884.56;6201058;27;126315;-60
2021/01/15 08:43:31;;;;;;;;;13.25;11.25;;;;;5.46;36.42;98880.63;6212457;28;124442;-60
2021/01/15 08:46:34;;;;;;;;;14.00;13.40;;;;;5.49;36.47;98892.78;6224551;27;126726;-59
2021/01/15 08:49:36;;;;;;;;;17.00;16.00;;;;;5.22;36.27;98854.25;6230383;28;126175;-59
2021/01/15 08:52:42;;;;;;;;;16.00;15.25;;;;;5.17;36.18;98853.97;6222172;28;125173;-59
2021/01/15 08:55:46;;;;;;;;;20.00;15.00;;;;;5.40;36.28;98899.25;6223462;28;127378;-59
2021/01/15 08:58:48;;;;;;;;;11.00;11.00;;;;;5.48;35.71;98908.00;6210134;28;125617;-59
2021/01/15 09:01:51;;;;;;;;;14.00;13.00;;;;;5.50;35.33;98915.81;6226787;28;126758;-59
2021/01/15 09:04:59;;;;;;;;;14.60;13.00;;;;;5.60;35.38;98916.34;6210018;28;124922;-60
2021/01/15 09:08:03;;;;;;;;;12.80;12.80;;;;;5.35;34.98;98878.44;6226221;28;125612;-60
2021/01/15 09:11:05;;;;;;;;;16.00;14.00;;;;;5.71;35.24;98920.38;6207528;28;124910;-59
2021/01/15 09:14:12;;;;;;;;;16.00;14.00;;;;;5.81;35.02;98935.13;6202121;28;126967;-59
2021/01/15 09:17:14;;;;;;;;;16.00;14.00;;;;;5.85;34.84;98932.88;6209331;28;124838;-59
2021/01/15 09:20:19;;;;;;;;;14.50;13.00;;;;;6.03;34.58;98931.44;6208070;28;126592;-59
2021/01/15 09:23:20;;;;;;;;;15.00;13.60;;;;;6.14;34.47;98914.03;6204314;28;127104;-60
2021/01/15 09:26:22;;;;;;;;;19.80;17.00;;;;;6.30;33.98;98935.19;6187445;28;128221;-59
2021/01/15 09:29:24;;;;;;;;;15.80;14.60;;;;;6.36;34.10;98930.88;6194352;28;125312;-59
2021/01/15 09:32:25;;;;;;;;;16.33;14.33;;;;;6.47;33.52;98941.91;6201372;28;125165;-60
2021/01/15 09:35:27;;;;;;;;;16.60;16.00;;;;;6.66;33.36;98943.06;6221347;28;125361;-59
2021/01/15 09:38:32;;;;;;;;;18.00;16.00;;;;;6.92;32.92;98948.63;6220417;28;127175;-59
2021/01/15 09:41:34;;;;;;;;;14.40;13.00;;;;;7.30;32.29;98948.19;6217655;27;126161;-59
2021/01/15 09:44:35;;;;;;;;;17.00;16.00;;;;;7.74;31.65;98953.94;6198596;27;124533;-59
2021/01/15 09:47:42;;;;;;;;;18.00;15.75;;;;;7.94;31.24;98931.69;6203536;28;124911;-60
2021/01/15 09:50:43;;;;;;;;;15.00;15.00;;;;;8.28;30.82;98942.28;6203213;28;127570;-59
2021/01/15 09:53:44;;;;;;;;;17.00;16.00;;;;;8.59;30.81;98947.06;6226022;28;127134;-59
2021/01/15 09:56:47;;;;;;;;;20.00;18.00;;;;;8.93;30.19;98948.69;6222217;28;126978;-60
2021/01/15 09:59:49;;;;;;;;;17.50;16.00;;;;;9.24;29.62;98948.81;6202588;27;126118;-60
2021/01/15 10:02:51;;;;;;;;;15.40;14.40;;;;;9.78;28.59;98945.69;6198626;28;128269;-59
2021/01/15 10:05:52;;;;;;;;;16.00;15.00;;;;;10.34;27.58;98947.66;6212068;28;127430;-59
2021/01/15 10:08:55;;;;;;;;;15.80;14.20;;;;;10.55;26.96;98951.88;6216880;28;126065;-59
2021/01/15 10:11:57;;;;;;;;;13.00;13.00;;;;;10.34;26.44;98907.25;6206276;28;125129;-59
2021/01/15 10:14:59;;;;;;;;;17.00;13.33;;;;;10.34;25.95;98915.31;6201743;28;125156;-59
2021/01/15 10:18:00;;;;;;;;;13.00;12.00;;;;;10.41;25.83;98949.25;6206929;28;126577;-59
2021/01/15 10:21:03;;;;;;;;;13.00;12.00;;;;;10.26;25.93;98943.34;6197893;27;127171;-60
2021/01/15 10:24:06;;;;;;;;;14.00;13.00;;;;;10.13;26.46;98938.03;6199124;28;126408;-60
2021/01/15 10:27:08;;;;;;;;;13.00;11.60;;;;;10.07;25.58;98951.56;6204941;28;126812;-60
2021/01/15 10:30:10;;;;;;;;;15.00;13.00;;;;;9.91;25.64;98940.25;6206707;28;126131;-60
2021/01/15 10:33:12;;;;;;;;;11.50;11.00;;;;;9.80;25.84;98945.47;6215793;27;125083;-60
2021/01/15 10:36:14;;;;;;;;;14.60;13.60;;;;;9.82;26.31;98943.41;6211847;28;126763;-60
2021/01/15 10:39:16;;;;;;;;;16.00;14.40;;;;;10.94;25.65;98946.13;6215334;27;127036;-60
2021/01/15 10:42:17;;;;;;;;;18.60;16.60;;;;;11.86;24.71;98930.72;6213533;28;124658;-60
2021/01/15 10:45:19;;;;;;;;;16.00;13.60;;;;;12.56;23.59;98934.44;6215398;27;127549;-60
2021/01/15 10:48:20;;;;;;;;;15.00;14.00;;;;;13.09;22.74;98907.28;6211293;28;126237;-61
2021/01/15 10:51:22;;;;;;;;;16.00;15.00;;;;;13.92;22.41;98930.41;6207759;28;124299;-59
2021/01/15 10:54:24;;;;;;;;;16.00;13.60;;;;;14.44;21.36;98914.84;6228780;28;126713;-61
2021/01/15 10:57:26;;;;;;;;;13.20;13.00;;;;;14.55;20.92;98862.38;6215854;27;127989;-62
2021/01/15 11:00:27;;;;;;;;;15.50;14.00;;;;;15.03;20.71;98906.00;6217984;28;126799;-61
2021/01/15 11:03:28;;;;;;;;;16.20;14.00;;;;;14.98;20.72;98896.94;6210788;28;127036;-61
2021/01/15 11:06:30;;;;;;;;;16.00;15.00;;;;;15.46;20.49;98898.94;6203245;28;128187;-60
2021/01/15 11:09:32;;;;;;;;;12.00;12.00;;;;;15.60;19.52;98883.94;6198768;28;125590;-61
2021/01/15 11:12:41;;;;;;;;;10.00;10.00;;;;;15.93;19.38;98900.06;6210022;28;125841;-60
2021/01/15 11:15:42;;;;;;;;;13.00;11.20;;;;;15.98;19.42;98881.09;6213578;27;126478;-61
2021/01/15 11:18:44;;;;;;;;;13.00;13.00;;;;;16.36;19.26;98874.66;6217076;28;126049;-61
2021/01/15 11:21:45;;;;;;;;;14.25;13.00;;;;;16.74;18.80;98867.34;6222870;28;127883;-61
2021/01/15 11:24:47;;;;;;;;;11.00;10.60;;;;;16.99;17.81;98870.22;6218685;28;125113;-60
2021/01/15 11:27:48;;;;;;;;;10.00;9.00;;;;;16.67;17.42;98859.41;6193548;27;126490;-61
2021/01/15 11:30:50;;;;;;;;;11.00;10.00;;;;;15.89;18.19;98866.31;6188642;28;126902;-60
2021/01/15 11:33:52;;;;;;;;;10.20;8.00;;;;;15.52;17.53;98860.75;6211288;28;126522;-60
2021/01/15 11:36:54;;;;;;;;;8.60;8.00;;;;;14.49;17.72;98796.38;6220861;28;125129;-60
2021/01/15 11:39:56;;;;;;;;;10.40;10.00;;;;;13.47;18.16;98798.44;6211265;27;125186;-61
2021/01/15 11:42:58;;;;;;;;;9.40;9.00;;;;;13.24;19.83;98852.69;6217401;28;96711;-60
2021/01/15 11:46:02;;;;;;;;;11.00;10.00;;;;;12.74;20.13;98864.03;6217414;28;126206;-60
2021/01/15 11:49:04;;;;;;;;;8.60;8.00;;;;;12.39;20.21;98847.78;6177243;28;126672;-60
2021/01/15 11:52:07;;;;;;;;;11.00;9.50;;;;;12.21;20.59;98849.78;6207754;28;126729;-59
2021/01/15 11:55:09;;;;;;;;;8.00;7.00;;;;;12.06;19.32;98829.44;6207264;28;125135;-60
2021/01/15 11:58:11;;;;;;;;;10.00;9.00;;;;;12.29;20.03;98846.72;6212429;28;125563;-59
2021/01/15 12:01:12;;;;;;;;;10.00;9.00;;;;;12.26;20.13;98839.09;6204887;28;126932;-60
2021/01/15 12:04:14;;;;;;;;;10.40;8.40;;;;;12.10;20.56;98846.00;6204536;28;122663;-60
2021/01/15 12:07:15;;;;;;;;;10.00;10.00;;;;;11.84;21.10;98841.81;6223494;28;125453;-60
2021/01/15 12:10:18;;;;;;;;;10.00;9.00;;;;;12.21;20.44;98850.59;6200445;28;126153;-60
2021/01/15 12:13:20;;;;;;;;;11.00;10.50;;;;;12.44;19.82;98847.09;6207082;28;126748;-60
2021/01/15 12:16:23;;;;;;;;;7.20;7.00;;;;;12.55;19.77;98849.81;6222158;27;125164;-60
2021/01/15 12:19:25;;;;;;;;;9.80;8.00;;;;;12.49;20.10;98849.91;6213888;27;126752;-61
2021/01/15 12:22:26;;;;;;;;;11.00;10.00;;;;;12.28;20.94;98845.06;6215331;28;125650;-61
2021/01/15 12:25:28;;;;;;;;;11.20;10.20;;;;;11.95;21.12;98822.13;6213426;27;127173;-60
2021/01/15 12:28:29;;;;;;;;;13.50;11.50;;;;;12.12;21.58;98858.19;6211400;27;127420;-60
2021/01/15 12:31:30;;;;;;;;;15.00;13.00;;;;;12.02;22.25;98843.63;6215813;27;125287;-60
2021/01/15 12:34:32;;;;;;;;;14.00;13.00;;;;;12.38;22.08;98840.72;6214494;28;124552;-60
2021/01/15 12:37:33;;;;;;;;;12.00;10.60;;;;;12.89;21.42;98842.72;6202448;28;128029;-61
2021/01/15 12:40:36;;;;;;;;;11.60;11.60;;;;;13.30;20.81;98849.81;6194138;28;125385;-60
2021/01/15 12:43:37;;;;;;;;;14.00;11.00;;;;;13.25;19.91;98841.59;6221813;28;125443;-59
2021/01/15 12:46:39;;;;;;;;;11.00;10.00;;;;;12.95;20.66;98839.03;6209719;28;125634;-59
2021/01/15 12:49:41;;;;;;;;;11.00;9.00;;;;;12.94;20.45;98833.88;6211599;28;126598;-59
2021/01/15 12:52:42;;;;;;;;;7.00;7.00;;;;;12.72;20.15;98843.66;6223110;28;126800;-59
2021/01/15 12:55:44;;;;;;;;;10.25;8.00;;;;;12.30;20.43;98840.25;6212923;27;127648;-59
2021/01/15 12:58:46;;;;;;;;;12.40;10.60;;;;;11.90;20.83;98838.19;6221705;28;126428;-60
2021/01/15 13:01:48;;;;;;;;;13.40;12.40;;;;;11.44;21.38;98846.09;6209325;27;127017;-60
2021/01/15 13:04:49;;;;;;;;;16.25;14.25;;;;;10.77;22.95;98832.59;6209943;28;126388;-59
2021/01/15 13:07:54;;;;;;;;;15.00;14.00;;;;;10.44;23.57;98859.06;6228716;28;124581;-59
2021/01/15 13:10:56;;;;;;;;;16.00;15.00;;;;;10.05;23.96;98840.50;6202525;27;125985;-59
2021/01/15 13:13:58;;;;;;;;;13.60;13.00;;;;;9.70;24.39;98840.13;6200008;28;126460;-59
2021/01/15 13:17:03;;;;;;;;;15.50;14.50;;;;;9.49;25.21;98844.81;6202186;28;125321;-59
2021/01/15 13:20:05;;;;;;;;;18.00;14.50;;;;;9.26;25.07;98839.16;6217518;28;125512;-59
2021/01/15 13:23:08;;;;;;;;;11.20;11.00;;;;;9.01;24.48;98838.22;6212156;28;124117;-58
2021/01/15 13:26:10;;;;;;;;;10.80;9.20;;;;;8.66;24.01;98829.63;6211619;28;125585;-59
2021/01/15 13:29:11;;;;;;;;;13.40;10.60;;;;;8.48;24.38;98824.94;6192863;27;125356;-59
2021/01/15 13:32:14;;;;;;;;;12.00;12.00;;;;;8.26;24.98;98853.00;6208585;27;125425;-58
2021/01/15 13:35:16;;;;;;;;;12.00;11.00;;;;;8.02;24.97;98851.78;6206605;28;124263;-59
2021/01/15 13:38:17;;;;;;;;;12.00;11.60;;;;;7.88;25.04;98844.75;6213867;27;125377;-59
2021/01/15 13:41:18;;;;;;;;;10.00;9.00;;;;;7.70;25.32;98850.75;6203633;28;127649;-59
2021/01/15 13:44:21;;;;;;;;;14.00;13.00;;;;;7.45;25.98;98838.91;6211505;27;126485;-59
2021/01/15 13:47:22;;;;;;;;;8.00;7.40;;;;;7.40;25.76;98854.78;6222299;28;126251;-59
2021/01/15 13:50:25;;;;;;;;;10.00;9.00;;;;;7.31;26.09;98851.47;6202954;28;124849;-59
2021/01/15 13:53:27;;;;;;;;;10.00;9.60;;;;;7.12;26.27;98849.56;6206060;27;126524;-59
2021/01/15 13:56:28;;;;;;;;;10.00;10.00;;;;;6.99;26.32;98854.03;6201204;28;126131;-58
2021/01/15 13:59:29;;;;;;;;;10.75;10.00;;;;;6.90;25.78;98872.94;6206749;28;125417;-58
2021/01/15 14:02:31;;;;;;;;;9.75;8.00;;;;;6.79;25.84;98860.09;6205276;28;126255;-59
2021/01/15 14:05:32;;;;;;;;;10.00;7.00;;;;;6.70;26.18;98872.00;6205558;28;125514;-60